createdAt,value
2023-03-23T15:58:22.609Z,2.67
2023-03-23T16:00:52.388Z,1.93
2023-03-23T16:03:22.436Z,2.60
2023-03-23T16:05:51.096Z,3.70
2023-03-23T16:08:18.738Z,2.10
2023-03-23T16:10:47.904Z,3.60
2023-03-23T16:13:15.618Z,2.13
2023-03-23T16:15:43.868Z,3.23
2023-03-23T16:18:18.786Z,2.93
2023-03-23T16:20:47.612Z,2.60
2023-03-23T16:23:15.737Z,2.80
2023-03-23T16:25:43.875Z,2.57
2023-03-23T16:28:14.783Z,2.87
2023-03-23T16:30:43.731Z,2.97
2023-03-23T16:33:11.946Z,2.57
2023-03-23T16:35:40.239Z,3.03
2023-03-23T16:38:09.212Z,2.60
2023-03-23T16:40:37.477Z,3.93
2023-03-23T16:43:09.338Z,3.23
2023-03-23T16:45:42.391Z,2.73
2023-03-23T16:48:12.717Z,2.77
2023-03-23T16:50:40.772Z,2.77
2023-03-23T16:53:09.240Z,3.00
2023-03-23T16:55:37.745Z,3.17
2023-03-23T16:58:16.306Z,3.10
2023-03-23T17:00:48.526Z,2.90
2023-03-23T17:03:17.114Z,2.23
2023-03-23T17:05:46.224Z,2.60
2023-03-23T17:08:14.228Z,3.40
2023-03-23T17:10:43.705Z,2.50
2023-03-23T17:13:11.784Z,2.43
2023-03-23T17:15:40.608Z,2.80
2023-03-23T17:18:12.476Z,2.90
2023-03-23T17:20:40.409Z,2.10
2023-03-23T17:23:08.022Z,3.37
2023-03-23T17:25:35.780Z,2.90
2023-03-23T17:28:05.910Z,2.47
2023-03-23T17:30:35.634Z,2.37
2023-03-23T17:33:03.570Z,2.80
2023-03-23T17:35:35.260Z,2.20
2023-03-23T17:38:02.977Z,2.50
2023-03-23T17:40:30.659Z,3.00
2023-03-23T17:42:58.356Z,2.30
2023-03-23T17:45:26.171Z,2.23
2023-03-23T17:47:54.082Z,2.80
2023-03-23T17:50:21.852Z,3.50
2023-03-23T17:52:51.090Z,2.47
2023-03-23T17:55:18.741Z,2.70
2023-03-23T17:57:46.399Z,2.53
2023-03-23T18:00:15.333Z,2.43
2023-03-23T18:02:43.120Z,2.43
2023-03-23T18:05:11.291Z,2.80
2023-03-23T18:07:39.749Z,2.50
2023-03-23T18:10:12.829Z,3.27
2023-03-23T18:12:41.758Z,2.60
2023-03-23T18:15:10.516Z,3.27
2023-03-23T18:17:38.367Z,4.50
2023-03-23T18:20:07.672Z,3.70
2023-03-23T18:22:35.793Z,2.87
2023-03-23T18:25:05.101Z,3.30
2023-03-23T18:27:34.915Z,3.40
2023-03-23T18:30:03.373Z,3.40
2023-03-23T18:32:31.511Z,3.40
2023-03-23T18:34:59.313Z,3.40
2023-03-23T18:37:27.240Z,2.30
2023-03-23T18:39:55.011Z,2.67
2023-03-23T18:42:23.414Z,2.50
2023-03-23T18:44:54.850Z,3.20
2023-03-23T18:47:22.801Z,3.00
2023-03-23T18:49:51.939Z,3.10
2023-03-23T18:52:19.968Z,3.20
2023-03-23T18:54:48.102Z,2.67
2023-03-23T18:57:18.009Z,3.07
2023-03-23T18:59:45.814Z,2.87
2023-03-23T19:02:15.736Z,3.30
2023-03-23T19:04:43.522Z,2.77
2023-03-23T19:07:12.849Z,3.00
2023-03-23T19:09:41.341Z,3.00
2023-03-23T19:12:09.293Z,3.10
2023-03-23T19:14:37.079Z,3.17
2023-03-23T19:17:05.018Z,3.80
2023-03-23T19:19:34.270Z,3.37
2023-03-23T19:22:03.328Z,3.47
2023-03-23T19:24:31.539Z,3.27
2023-03-23T19:26:59.937Z,3.97
2023-03-23T19:29:27.664Z,3.33
2023-03-23T19:31:55.999Z,3.90
2023-03-23T19:34:25.044Z,3.30
2023-03-23T19:37:03.216Z,4.30
2023-03-23T19:39:33.942Z,3.33
2023-03-23T19:42:01.922Z,3.67
2023-03-23T19:44:29.689Z,4.10
2023-03-23T19:46:57.838Z,4.30
2023-03-23T19:49:25.609Z,3.60
2023-03-23T19:52:08.810Z,3.80
2023-03-23T19:54:38.420Z,3.97
2023-03-23T19:57:06.413Z,3.20
2023-03-23T19:59:34.807Z,3.40
2023-03-23T20:02:02.791Z,3.67
2023-03-23T20:04:30.659Z,4.30
2023-03-23T20:07:00.693Z,4.20
2023-03-23T20:09:28.708Z,3.83
2023-03-23T20:11:57.277Z,3.60
2023-03-23T20:14:25.856Z,3.77
2023-03-23T20:16:53.928Z,3.27
2023-03-23T20:19:22.046Z,4.07
2023-03-23T20:21:49.753Z,3.77
2023-03-23T20:24:19.925Z,4.50
2023-03-23T20:26:47.772Z,4.73
2023-03-23T20:29:16.193Z,3.47
2023-03-23T20:31:46.238Z,3.90
2023-03-23T20:34:30.599Z,4.70
2023-03-23T20:36:59.310Z,5.07
2023-03-23T20:39:30.661Z,5.00
2023-03-23T20:42:01.901Z,5.77
2023-03-23T20:44:32.981Z,5.33
2023-03-23T20:47:03.134Z,5.00
2023-03-23T20:49:32.093Z,6.20
2023-03-23T20:52:01.033Z,6.50
2023-03-23T20:54:30.832Z,6.40
2023-03-23T20:56:59.010Z,6.50
2023-03-23T20:59:26.870Z,6.90
2023-03-23T21:01:54.706Z,7.13
2023-03-23T21:04:27.170Z,7.30
2023-03-23T21:06:56.081Z,7.20
2023-03-23T21:09:24.822Z,6.97
2023-03-23T21:11:54.821Z,7.40
2023-03-23T21:14:22.861Z,8.37
2023-03-23T21:16:50.622Z,8.33
2023-03-23T21:19:19.392Z,8.47
2023-03-23T21:21:56.645Z,7.50
2023-03-23T21:24:28.287Z,7.80
2023-03-23T21:26:59.688Z,8.10
2023-03-23T21:29:28.246Z,7.47
2023-03-23T21:32:07.674Z,8.10
2023-03-23T21:34:36.686Z,8.63
2023-03-23T21:37:04.559Z,7.83
2023-03-23T21:39:32.393Z,9.40
2023-03-23T21:42:02.776Z,8.47
2023-03-23T21:44:30.576Z,9.33
2023-03-23T21:46:58.264Z,9.60
2023-03-23T21:49:25.897Z,10.73
2023-03-23T21:51:53.596Z,10.27
2023-03-23T21:54:21.343Z,10.80
2023-03-23T21:56:49.667Z,11.00
2023-03-23T21:59:19.006Z,10.97
2023-03-23T22:01:47.970Z,11.10
2023-03-23T22:04:17.154Z,10.03
2023-03-23T22:06:45.027Z,11.10
2023-03-23T22:09:12.972Z,11.00
2023-03-23T22:11:41.066Z,10.23
2023-03-23T22:14:08.902Z,10.43
2023-03-23T22:16:37.879Z,10.93
2023-03-23T22:19:05.653Z,10.63
2023-03-23T22:21:33.332Z,9.87
2023-03-23T22:24:01.629Z,10.27
2023-03-23T22:26:31.194Z,11.03
2023-03-23T22:29:00.189Z,10.57
2023-03-23T22:31:32.490Z,10.57
2023-03-23T22:34:02.476Z,11.83
2023-03-23T22:36:31.318Z,11.73
2023-03-23T22:38:58.951Z,10.10
2023-03-23T22:41:28.852Z,10.73
2023-03-23T22:43:57.133Z,10.50
2023-03-23T22:46:25.661Z,10.60
2023-03-23T22:48:53.521Z,11.87
2023-03-23T22:51:24.160Z,10.70
2023-03-23T22:53:51.828Z,11.27
2023-03-23T22:56:19.695Z,10.50
2023-03-23T22:58:47.810Z,11.17
2023-03-23T23:01:17.609Z,10.77
2023-03-23T23:03:45.788Z,9.70
2023-03-23T23:06:14.685Z,10.70
2023-03-23T23:08:44.048Z,10.10
2023-03-23T23:11:13.473Z,10.10
2023-03-23T23:13:42.033Z,8.90
2023-03-23T23:16:10.936Z,10.73
2023-03-23T23:18:40.707Z,8.37
2023-03-23T23:21:10.549Z,9.73
2023-03-23T23:23:38.445Z,9.30
2023-03-23T23:26:08.240Z,10.20
2023-03-23T23:28:36.726Z,9.60
2023-03-23T23:31:06.197Z,8.97
2023-03-23T23:33:34.219Z,8.93
2023-03-23T23:36:02.507Z,9.60
2023-03-23T23:38:30.296Z,9.33
2023-03-23T23:40:58.529Z,8.30
2023-03-23T23:43:27.447Z,9.40
2023-03-23T23:45:55.191Z,9.07
2023-03-23T23:48:23.348Z,7.70
2023-03-23T23:50:51.578Z,8.23
2023-03-23T23:53:22.781Z,7.97
2023-03-23T23:55:50.625Z,7.57
2023-03-23T23:58:18.514Z,7.20
